sensor_id;sensor_type;location;lat;lon;timestamp;pressure;altitude;pressure_sealevel;temperature;humidity
16613;BME280;8419;52.358;9.752;2023-05-02T00:00:22;100939.00;;;21.98;34.34
16613;BME280;8419;52.358;9.752;2023-05-02T00:03:08;100939.00;;;21.95;34.39
16613;BME280;8419;52.358;9.752;2023-05-02T00:05:53;100941.00;;;21.96;34.41
16613;BME280;8419;52.358;9.752;2023-05-02T00:08:38;100937.00;;;21.94;34.42
16613;BME280;8419;52.358;9.752;2023-05-02T00:11:24;100943.00;;;21.93;34.39
16613;BME280;8419;52.358;9.752;2023-05-02T00:14:10;100940.00;;;21.92;34.38
16613;BME280;8419;52.358;9.752;2023-05-02T00:16:57;100943.00;;;21.91;34.41
16613;BME280;8419;52.358;9.752;2023-05-02T00:19:43;100942.00;;;21.90;34.43
16613;BME280;8419;52.358;9.752;2023-05-02T00:22:28;100937.00;;;21.86;34.48
16613;BME280;8419;52.358;9.752;2023-05-02T00:25:14;100941.00;;;21.83;34.51
16613;BME280;8419;52.358;9.752;2023-05-02T00:28:01;100936.00;;;21.84;34.47
16613;BME280;8419;52.358;9.752;2023-05-02T00:30:47;100936.00;;;21.84;34.50
16613;BME280;8419;52.358;9.752;2023-05-02T00:33:32;100935.00;;;21.82;34.56
16613;BME280;8419;52.358;9.752;2023-05-02T00:36:18;100935.00;;;21.82;34.50
16613;BME280;8419;52.358;9.752;2023-05-02T00:39:05;100943.00;;;21.81;34.49
16613;BME280;8419;52.358;9.752;2023-05-02T00:41:56;100937.00;;;21.81;34.45
16613;BME280;8419;52.358;9.752;2023-05-02T00:44:44;100947.00;;;21.82;34.52
16613;BME280;8419;52.358;9.752;2023-05-02T00:47:32;100956.00;;;21.78;34.58
16613;BME280;8419;52.358;9.752;2023-05-02T00:50:18;100951.00;;;21.76;34.67
16613;BME280;8419;52.358;9.752;2023-05-02T00:53:04;100954.00;;;21.73;34.68
16613;BME280;8419;52.358;9.752;2023-05-02T00:55:51;100955.00;;;21.72;34.67
16613;BME280;8419;52.358;9.752;2023-05-02T00:58:39;100955.00;;;21.75;34.65
16613;BME280;8419;52.358;9.752;2023-05-02T01:01:39;100946.00;;;21.70;34.74
16613;BME280;8419;52.358;9.752;2023-05-02T01:04:36;100946.00;;;21.67;34.77
16613;BME280;8419;52.358;9.752;2023-05-02T01:07:41;100950.00;;;21.69;34.72
16613;BME280;8419;52.358;9.752;2023-05-02T01:10:41;100953.00;;;21.68;34.76
16613;BME280;8419;52.358;9.752;2023-05-02T01:13:33;100952.00;;;21.64;34.81
16613;BME280;8419;52.358;9.752;2023-05-02T01:16:20;100959.00;;;21.62;34.92
16613;BME280;8419;52.358;9.752;2023-05-02T01:19:18;100955.00;;;21.61;34.91
16613;BME280;8419;52.358;9.752;2023-05-02T01:22:07;100958.00;;;21.60;34.93
16613;BME280;8419;52.358;9.752;2023-05-02T01:25:02;100954.00;;;21.59;34.90
16613;BME280;8419;52.358;9.752;2023-05-02T01:27:56;100961.00;;;21.57;34.95
16613;BME280;8419;52.358;9.752;2023-05-02T01:30:46;100966.00;;;21.56;34.96
16613;BME280;8419;52.358;9.752;2023-05-02T01:33:34;100964.00;;;21.52;35.06
16613;BME280;8419;52.358;9.752;2023-05-02T01:36:23;100958.00;;;21.49;35.11
16613;BME280;8419;52.358;9.752;2023-05-02T01:39:15;100968.00;;;21.48;35.26
16613;BME280;8419;52.358;9.752;2023-05-02T01:42:03;100966.00;;;21.52;35.14
16613;BME280;8419;52.358;9.752;2023-05-02T01:44:50;100968.00;;;21.50;35.21
16613;BME280;8419;52.358;9.752;2023-05-02T01:47:37;100973.00;;;21.45;35.29
16613;BME280;8419;52.358;9.752;2023-05-02T01:50:24;100976.00;;;21.47;35.21
16613;BME280;8419;52.358;9.752;2023-05-02T01:53:11;100983.00;;;21.51;35.14
16613;BME280;8419;52.358;9.752;2023-05-02T01:55:59;100987.00;;;21.54;35.10
16613;BME280;8419;52.358;9.752;2023-05-02T01:58:46;100997.00;;;21.53;35.14
16613;BME280;8419;52.358;9.752;2023-05-02T02:01:34;100998.00;;;21.53;35.20
16613;BME280;8419;52.358;9.752;2023-05-02T02:04:21;100997.00;;;21.56;35.26
16613;BME280;8419;52.358;9.752;2023-05-02T02:07:10;100989.00;;;21.51;35.40
16613;BME280;8419;52.358;9.752;2023-05-02T02:09:58;100991.00;;;21.51;35.39
16613;BME280;8419;52.358;9.752;2023-05-02T02:12:49;100998.00;;;21.52;35.37
16613;BME280;8419;52.358;9.752;2023-05-02T02:15:37;101000.00;;;21.53;35.45
16613;BME280;8419;52.358;9.752;2023-05-02T02:18:27;101009.00;;;21.50;35.48
16613;BME280;8419;52.358;9.752;2023-05-02T02:21:17;101006.00;;;21.47;35.54
16613;BME280;8419;52.358;9.752;2023-05-02T02:24:06;101011.00;;;21.44;35.67
16613;BME280;8419;52.358;9.752;2023-05-02T02:26:53;101009.00;;;21.39;35.75
16613;BME280;8419;52.358;9.752;2023-05-02T02:29:39;101017.00;;;21.32;35.95
16613;BME280;8419;52.358;9.752;2023-05-02T02:32:24;101016.00;;;21.30;36.07
16613;BME280;8419;52.358;9.752;2023-05-02T02:35:10;101017.00;;;21.32;35.96
16613;BME280;8419;52.358;9.752;2023-05-02T02:38:05;101014.00;;;21.24;36.22
16613;BME280;8419;52.358;9.752;2023-05-02T02:40:59;101013.00;;;21.24;36.34
16613;BME280;8419;52.358;9.752;2023-05-02T02:43:59;101014.00;;;21.26;36.38
16613;BME280;8419;52.358;9.752;2023-05-02T02:46:50;101016.00;;;21.29;36.34
16613;BME280;8419;52.358;9.752;2023-05-02T02:49:48;101022.00;;;21.28;36.39
16613;BME280;8419;52.358;9.752;2023-05-02T02:52:42;101030.00;;;21.27;36.44
16613;BME280;8419;52.358;9.752;2023-05-02T02:55:39;101034.00;;;21.25;36.57
16613;BME280;8419;52.358;9.752;2023-05-02T02:58:38;101042.00;;;21.22;36.77
16613;BME280;8419;52.358;9.752;2023-05-02T03:01:26;101035.00;;;21.21;36.81
16613;BME280;8419;52.358;9.752;2023-05-02T03:04:12;101043.00;;;21.17;36.99
16613;BME280;8419;52.358;9.752;2023-05-02T03:07:00;101045.00;;;21.17;37.15
16613;BME280;8419;52.358;9.752;2023-05-02T03:09:47;101048.00;;;21.16;37.13
16613;BME280;8419;52.358;9.752;2023-05-02T03:12:33;101048.00;;;21.19;37.06
16613;BME280;8419;52.358;9.752;2023-05-02T03:15:30;101052.00;;;21.10;37.28
16613;BME280;8419;52.358;9.752;2023-05-02T03:18:21;101062.00;;;21.07;37.53
16613;BME280;8419;52.358;9.752;2023-05-02T03:21:07;101066.00;;;20.99;37.77
16613;BME280;8419;52.358;9.752;2023-05-02T03:23:52;101065.00;;;21.01;37.77
16613;BME280;8419;52.358;9.752;2023-05-02T03:26:38;101072.00;;;21.03;37.79
16613;BME280;8419;52.358;9.752;2023-05-02T03:29:24;101063.00;;;21.09;37.67
16613;BME280;8419;52.358;9.752;2023-05-02T03:32:09;101062.00;;;21.13;37.58
16613;BME280;8419;52.358;9.752;2023-05-02T03:34:55;101061.00;;;21.17;37.59
16613;BME280;8419;52.358;9.752;2023-05-02T03:37:43;101067.00;;;21.11;37.64
16613;BME280;8419;52.358;9.752;2023-05-02T03:40:28;101065.00;;;21.10;37.75
16613;BME280;8419;52.358;9.752;2023-05-02T03:43:15;101071.00;;;21.12;37.72
16613;BME280;8419;52.358;9.752;2023-05-02T03:46:07;101073.00;;;21.11;37.77
16613;BME280;8419;52.358;9.752;2023-05-02T03:48:53;101072.00;;;21.05;37.99
16613;BME280;8419;52.358;9.752;2023-05-02T03:51:39;101078.00;;;21.05;37.95
16613;BME280;8419;52.358;9.752;2023-05-02T03:54:24;101076.00;;;21.04;38.06
16613;BME280;8419;52.358;9.752;2023-05-02T03:57:10;101077.00;;;21.00;38.24
16613;BME280;8419;52.358;9.752;2023-05-02T03:59:56;101083.00;;;20.98;38.30
16613;BME280;8419;52.358;9.752;2023-05-02T04:02:42;101086.00;;;20.93;38.55
16613;BME280;8419;52.358;9.752;2023-05-02T04:05:29;101088.00;;;20.92;38.49
16613;BME280;8419;52.358;9.752;2023-05-02T04:08:14;101086.00;;;20.97;38.58
16613;BME280;8419;52.358;9.752;2023-05-02T04:11:01;101097.00;;;20.90;38.82
16613;BME280;8419;52.358;9.752;2023-05-02T04:13:46;101103.00;;;20.86;38.95
16613;BME280;8419;52.358;9.752;2023-05-02T04:16:32;101107.00;;;20.87;38.95
16613;BME280;8419;52.358;9.752;2023-05-02T04:19:18;101111.00;;;20.88;39.00
16613;BME280;8419;52.358;9.752;2023-05-02T04:22:04;101106.00;;;20.80;39.35
16613;BME280;8419;52.358;9.752;2023-05-02T04:24:49;101117.00;;;20.74;39.60
16613;BME280;8419;52.358;9.752;2023-05-02T04:27:35;101126.00;;;20.71;39.64
16613;BME280;8419;52.358;9.752;2023-05-02T04:30:21;101122.00;;;20.69;39.82
16613;BME280;8419;52.358;9.752;2023-05-02T04:33:06;101133.00;;;20.72;39.76
16613;BME280;8419;52.358;9.752;2023-05-02T04:35:51;101138.00;;;20.70;39.97
16613;BME280;8419;52.358;9.752;2023-05-02T04:38:37;101138.00;;;20.69;40.21
16613;BME280;8419;52.358;9.752;2023-05-02T04:41:22;101139.00;;;20.63;40.33
16613;BME280;8419;52.358;9.752;2023-05-02T04:44:08;101151.00;;;20.58;40.61
16613;BME280;8419;52.358;9.752;2023-05-02T04:46:53;101155.00;;;20.55;40.69
16613;BME280;8419;52.358;9.752;2023-05-02T04:49:38;101154.00;;;20.51;40.96
16613;BME280;8419;52.358;9.752;2023-05-02T04:52:25;101157.00;;;20.50;40.97
16613;BME280;8419;52.358;9.752;2023-05-02T04:55:10;101163.00;;;20.51;40.98
16613;BME280;8419;52.358;9.752;2023-05-02T04:57:57;101178.00;;;20.54;41.02
16613;BME280;8419;52.358;9.752;2023-05-02T05:00:42;101179.00;;;20.39;41.53
16613;BME280;8419;52.358;9.752;2023-05-02T05:03:29;101186.00;;;20.29;41.77
16613;BME280;8419;52.358;9.752;2023-05-02T05:06:15;101189.00;;;20.17;41.97
16613;BME280;8419;52.358;9.752;2023-05-02T05:09:02;101198.00;;;20.10;42.13
16613;BME280;8419;52.358;9.752;2023-05-02T05:11:48;101196.00;;;20.18;41.96
16613;BME280;8419;52.358;9.752;2023-05-02T05:14:35;101205.00;;;20.24;41.87
16613;BME280;8419;52.358;9.752;2023-05-02T05:17:20;101211.00;;;20.18;41.97
16613;BME280;8419;52.358;9.752;2023-05-02T05:20:08;101223.00;;;20.15;42.09
16613;BME280;8419;52.358;9.752;2023-05-02T05:22:54;101237.00;;;20.17;42.16
16613;BME280;8419;52.358;9.752;2023-05-02T05:25:39;101221.00;;;20.14;42.17
16613;BME280;8419;52.358;9.752;2023-05-02T05:28:25;101232.00;;;20.05;42.25
16613;BME280;8419;52.358;9.752;2023-05-02T05:31:12;101237.00;;;20.06;42.11
16613;BME280;8419;52.358;9.752;2023-05-02T05:34:00;101252.00;;;20.10;41.92
16613;BME280;8419;52.358;9.752;2023-05-02T05:36:46;101259.00;;;20.08;41.72
16613;BME280;8419;52.358;9.752;2023-05-02T05:39:31;101267.00;;;20.02;41.66
16613;BME280;8419;52.358;9.752;2023-05-02T05:42:17;101273.00;;;19.94;41.51
16613;BME280;8419;52.358;9.752;2023-05-02T05:45:07;101279.00;;;19.88;41.43
16613;BME280;8419;52.358;9.752;2023-05-02T05:47:54;101286.00;;;19.88;41.21
16613;BME280;8419;52.358;9.752;2023-05-02T05:50:40;101293.00;;;19.74;40.98
16613;BME280;8419;52.358;9.752;2023-05-02T05:53:26;101304.00;;;19.62;40.92
16613;BME280;8419;52.358;9.752;2023-05-02T05:56:12;101299.00;;;19.57;40.90
16613;BME280;8419;52.358;9.752;2023-05-02T05:58:58;101307.00;;;19.64;40.70
16613;BME280;8419;52.358;9.752;2023-05-02T06:01:44;101314.00;;;19.69;40.53
16613;BME280;8419;52.358;9.752;2023-05-02T06:04:29;101326.00;;;19.68;40.51
16613;BME280;8419;52.358;9.752;2023-05-02T06:07:14;101333.00;;;19.63;40.43
16613;BME280;8419;52.358;9.752;2023-05-02T06:10:00;101337.00;;;19.59;40.46
16613;BME280;8419;52.358;9.752;2023-05-02T06:12:45;101336.00;;;19.68;40.30
16613;BME280;8419;52.358;9.752;2023-05-02T06:15:35;101341.00;;;19.81;40.13
16613;BME280;8419;52.358;9.752;2023-05-02T06:18:20;101346.00;;;19.80;39.93
16613;BME280;8419;52.358;9.752;2023-05-02T06:21:06;101356.00;;;19.73;39.78
16613;BME280;8419;52.358;9.752;2023-05-02T06:23:52;101359.00;;;19.59;39.78
16613;BME280;8419;52.358;9.752;2023-05-02T06:26:38;101377.00;;;19.51;39.82
16613;BME280;8419;52.358;9.752;2023-05-02T06:29:23;101380.00;;;19.49;39.82
16613;BME280;8419;52.358;9.752;2023-05-02T06:32:09;101387.00;;;19.54;39.63
16613;BME280;8419;52.358;9.752;2023-05-02T06:34:54;101384.00;;;19.57;39.56
16613;BME280;8419;52.358;9.752;2023-05-02T06:37:39;101404.00;;;19.67;39.35
16613;BME280;8419;52.358;9.752;2023-05-02T06:40:25;101393.00;;;19.73;39.18
16613;BME280;8419;52.358;9.752;2023-05-02T06:43:11;101400.00;;;19.79;38.92
16613;BME280;8419;52.358;9.752;2023-05-02T06:45:56;101399.00;;;19.78;38.64
16613;BME280;8419;52.358;9.752;2023-05-02T06:48:42;101413.00;;;19.75;38.57
16613;BME280;8419;52.358;9.752;2023-05-02T06:51:28;101409.00;;;19.86;38.46
16613;BME280;8419;52.358;9.752;2023-05-02T06:54:14;101430.00;;;20.00;38.31
16613;BME280;8419;52.358;9.752;2023-05-02T06:57:00;101429.00;;;20.10;38.09
16613;BME280;8419;52.358;9.752;2023-05-02T06:59:46;101427.00;;;19.96;37.85
16613;BME280;8419;52.358;9.752;2023-05-02T07:02:32;101426.00;;;19.93;37.93
16613;BME280;8419;52.358;9.752;2023-05-02T07:05:17;101431.00;;;20.02;37.80
16613;BME280;8419;52.358;9.752;2023-05-02T07:08:04;101440.00;;;20.10;37.62
16613;BME280;8419;52.358;9.752;2023-05-02T07:10:51;101452.00;;;20.21;37.52
16613;BME280;8419;52.358;9.752;2023-05-02T07:13:36;101442.00;;;20.41;37.28
16613;BME280;8419;52.358;9.752;2023-05-02T07:16:21;101446.00;;;20.55;37.03
16613;BME280;8419;52.358;9.752;2023-05-02T07:19:07;101446.00;;;20.73;36.72
16613;BME280;8419;52.358;9.752;2023-05-02T07:21:53;101463.00;;;20.89;36.42
16613;BME280;8419;52.358;9.752;2023-05-02T07:24:41;101469.00;;;20.88;35.99
16613;BME280;8419;52.358;9.752;2023-05-02T07:27:26;101468.00;;;20.86;35.65
16613;BME280;8419;52.358;9.752;2023-05-02T07:30:13;101481.00;;;20.75;35.58
16613;BME280;8419;52.358;9.752;2023-05-02T07:32:58;101485.00;;;20.61;35.41
16613;BME280;8419;52.358;9.752;2023-05-02T07:35:44;101484.00;;;20.49;35.11
16613;BME280;8419;52.358;9.752;2023-05-02T07:38:32;101488.00;;;20.42;34.91
16613;BME280;8419;52.358;9.752;2023-05-02T07:41:17;101491.00;;;20.41;34.58
16613;BME280;8419;52.358;9.752;2023-05-02T07:44:02;101495.00;;;20.29;34.51
16613;BME280;8419;52.358;9.752;2023-05-02T07:46:48;101499.00;;;20.31;34.30
16613;BME280;8419;52.358;9.752;2023-05-02T07:49:34;101501.00;;;20.25;34.21
16613;BME280;8419;52.358;9.752;2023-05-02T07:52:21;101507.00;;;20.30;34.28
16613;BME280;8419;52.358;9.752;2023-05-02T07:55:08;101507.00;;;20.39;34.13
16613;BME280;8419;52.358;9.752;2023-05-02T07:57:54;101515.00;;;20.42;33.91
16613;BME280;8419;52.358;9.752;2023-05-02T08:00:40;101512.00;;;20.25;33.86
16613;BME280;8419;52.358;9.752;2023-05-02T08:03:27;101523.00;;;20.25;33.64
16613;BME280;8419;52.358;9.752;2023-05-02T08:06:13;101518.00;;;20.18;33.73
16613;BME280;8419;52.358;9.752;2023-05-02T08:08:59;101522.00;;;20.31;33.47
16613;BME280;8419;52.358;9.752;2023-05-02T08:11:45;101527.00;;;20.46;33.12
16613;BME280;8419;52.358;9.752;2023-05-02T08:14:31;101535.00;;;20.52;32.78
16613;BME280;8419;52.358;9.752;2023-05-02T08:17:16;101530.00;;;20.61;32.45
16613;BME280;8419;52.358;9.752;2023-05-02T08:20:01;101552.00;;;20.67;32.23
16613;BME280;8419;52.358;9.752;2023-05-02T08:22:47;101551.00;;;20.64;31.88
16613;BME280;8419;52.358;9.752;2023-05-02T08:25:33;101552.00;;;20.47;31.77
16613;BME280;8419;52.358;9.752;2023-05-02T08:28:19;101552.00;;;20.37;31.73
16613;BME280;8419;52.358;9.752;2023-05-02T08:31:05;101557.00;;;20.28;31.69
16613;BME280;8419;52.358;9.752;2023-05-02T08:33:51;101556.00;;;20.21;31.73
16613;BME280;8419;52.358;9.752;2023-05-02T08:36:37;101570.00;;;20.16;31.72
16613;BME280;8419;52.358;9.752;2023-05-02T08:39:22;101578.00;;;20.14;31.48
16613;BME280;8419;52.358;9.752;2023-05-02T08:42:09;101572.00;;;20.14;31.55
16613;BME280;8419;52.358;9.752;2023-05-02T08:44:55;101575.00;;;20.10;31.33
16613;BME280;8419;52.358;9.752;2023-05-02T08:47:42;101588.00;;;20.15;31.35
16613;BME280;8419;52.358;9.752;2023-05-02T08:50:29;101579.00;;;20.33;31.20
16613;BME280;8419;52.358;9.752;2023-05-02T08:53:16;101582.00;;;20.37;31.10
16613;BME280;8419;52.358;9.752;2023-05-02T08:56:02;101594.00;;;20.35;31.07
16613;BME280;8419;52.358;9.752;2023-05-02T08:58:48;101602.00;;;20.46;31.00
16613;BME280;8419;52.358;9.752;2023-05-02T09:01:34;101612.00;;;20.43;31.11
16613;BME280;8419;52.358;9.752;2023-05-02T09:04:23;101616.00;;;20.48;30.92
16613;BME280;8419;52.358;9.752;2023-05-02T09:07:15;101618.00;;;20.32;30.96
16613;BME280;8419;52.358;9.752;2023-05-02T09:10:00;101632.00;;;20.13;31.04
16613;BME280;8419;52.358;9.752;2023-05-02T09:12:47;101632.00;;;20.02;31.06
16613;BME280;8419;52.358;9.752;2023-05-02T09:15:32;101642.00;;;19.94;30.96
16613;BME280;8419;52.358;9.752;2023-05-02T09:18:19;101642.00;;;19.97;30.92
16613;BME280;8419;52.358;9.752;2023-05-02T09:21:07;101645.00;;;20.08;30.87
16613;BME280;8419;52.358;9.752;2023-05-02T09:23:54;101651.00;;;19.92;30.99
16613;BME280;8419;52.358;9.752;2023-05-02T09:26:41;101651.00;;;20.19;30.87
16613;BME280;8419;52.358;9.752;2023-05-02T09:29:27;101654.00;;;20.48;30.59
16613;BME280;8419;52.358;9.752;2023-05-02T09:32:15;101655.00;;;20.62;30.46
16613;BME280;8419;52.358;9.752;2023-05-02T09:35:08;101660.00;;;20.62;30.21
16613;BME280;8419;52.358;9.752;2023-05-02T09:37:55;101670.00;;;20.45;30.33
16613;BME280;8419;52.358;9.752;2023-05-02T09:40:52;101671.00;;;20.62;30.29
16613;BME280;8419;52.358;9.752;2023-05-02T09:43:40;101678.00;;;20.83;30.02
16613;BME280;8419;52.358;9.752;2023-05-02T09:46:26;101684.00;;;20.82;29.85
16613;BME280;8419;52.358;9.752;2023-05-02T09:49:40;101674.00;;;20.64;29.72
16613;BME280;8419;52.358;9.752;2023-05-02T09:52:26;101673.00;;;20.58;29.80
16613;BME280;8419;52.358;9.752;2023-05-02T09:55:20;101677.00;;;20.61;29.69
16613;BME280;8419;52.358;9.752;2023-05-02T09:58:06;101675.00;;;20.86;29.40
16613;BME280;8419;52.358;9.752;2023-05-02T10:00:52;101682.00;;;21.19;29.10
16613;BME280;8419;52.358;9.752;2023-05-02T10:03:40;101688.00;;;21.32;28.74
16613;BME280;8419;52.358;9.752;2023-05-02T10:06:26;101687.00;;;21.31;28.50
16613;BME280;8419;52.358;9.752;2023-05-02T10:09:14;101702.00;;;21.66;28.36
16613;BME280;8419;52.358;9.752;2023-05-02T10:12:01;101705.00;;;21.81;27.93
16613;BME280;8419;52.358;9.752;2023-05-02T10:14:55;101701.00;;;21.68;27.66
16613;BME280;8419;52.358;9.752;2023-05-02T10:17:47;101709.00;;;21.45;27.71
16613;BME280;8419;52.358;9.752;2023-05-02T10:20:35;101701.00;;;21.51;27.82
16613;BME280;8419;52.358;9.752;2023-05-02T10:23:25;101708.00;;;21.72;27.67
16613;BME280;8419;52.358;9.752;2023-05-02T10:26:15;101717.00;;;21.51;27.28
16613;BME280;8419;52.358;9.752;2023-05-02T10:29:04;101721.00;;;21.33;27.39
16613;BME280;8419;52.358;9.752;2023-05-02T10:31:50;101719.00;;;21.22;27.43
16613;BME280;8419;52.358;9.752;2023-05-02T10:34:36;101714.00;;;21.25;27.33
16613;BME280;8419;52.358;9.752;2023-05-02T10:37:26;101723.00;;;21.31;27.27
16613;BME280;8419;52.358;9.752;2023-05-02T10:40:12;101717.00;;;21.27;27.19
16613;BME280;8419;52.358;9.752;2023-05-02T10:42:58;101717.00;;;21.22;26.97
16613;BME280;8419;52.358;9.752;2023-05-02T10:45:45;101722.00;;;21.31;27.03
16613;BME280;8419;52.358;9.752;2023-05-02T10:48:30;101726.00;;;21.34;26.91
16613;BME280;8419;52.358;9.752;2023-05-02T10:51:26;101721.00;;;21.36;26.89
16613;BME280;8419;52.358;9.752;2023-05-02T10:54:19;101724.00;;;21.53;26.79
16613;BME280;8419;52.358;9.752;2023-05-02T10:57:06;101734.00;;;21.53;26.72
16613;BME280;8419;52.358;9.752;2023-05-02T10:59:52;101729.00;;;21.50;26.60
16613;BME280;8419;52.358;9.752;2023-05-02T11:02:49;101731.00;;;21.54;26.65
16613;BME280;8419;52.358;9.752;2023-05-02T11:06:04;101738.00;;;21.86;26.42
16613;BME280;8419;52.358;9.752;2023-05-02T11:08:49;101753.00;;;21.83;26.31
16613;BME280;8419;52.358;9.752;2023-05-02T11:11:40;101746.00;;;21.79;26.04
16613;BME280;8419;52.358;9.752;2023-05-02T11:14:45;101741.00;;;21.74;26.08
16613;BME280;8419;52.358;9.752;2023-05-02T11:17:58;101751.00;;;22.01;25.98
16613;BME280;8419;52.358;9.752;2023-05-02T11:20:44;101741.00;;;22.13;25.68
16613;BME280;8419;52.358;9.752;2023-05-02T11:23:29;101739.00;;;22.10;25.42
16613;BME280;8419;52.358;9.752;2023-05-02T11:26:21;101748.00;;;22.11;25.26
16613;BME280;8419;52.358;9.752;2023-05-02T11:29:07;101753.00;;;22.25;25.40
16613;BME280;8419;52.358;9.752;2023-05-02T11:31:53;101755.00;;;22.26;25.00
16613;BME280;8419;52.358;9.752;2023-05-02T11:34:41;101758.00;;;21.96;25.04
16613;BME280;8419;52.358;9.752;2023-05-02T11:37:28;101746.00;;;21.83;25.04
16613;BME280;8419;52.358;9.752;2023-05-02T11:40:16;101748.00;;;21.84;25.00
16613;BME280;8419;52.358;9.752;2023-05-02T11:43:12;101752.00;;;21.89;24.94
16613;BME280;8419;52.358;9.752;2023-05-02T11:45:58;101742.00;;;22.16;24.91
16613;BME280;8419;52.358;9.752;2023-05-02T11:48:44;101747.00;;;22.25;24.68
16613;BME280;8419;52.358;9.752;2023-05-02T11:51:30;101754.00;;;22.11;24.66
16613;BME280;8419;52.358;9.752;2023-05-02T11:54:19;101761.00;;;22.13;24.77
16613;BME280;8419;52.358;9.752;2023-05-02T11:57:05;101763.00;;;22.20;24.74
16613;BME280;8419;52.358;9.752;2023-05-02T11:59:52;101753.00;;;22.15;24.42
16613;BME280;8419;52.358;9.752;2023-05-02T12:02:39;101765.00;;;22.08;24.43
16613;BME280;8419;52.358;9.752;2023-05-02T12:05:28;101775.00;;;22.21;24.11
16613;BME280;8419;52.358;9.752;2023-05-02T12:08:21;101768.00;;;22.43;23.98
16613;BME280;8419;52.358;9.752;2023-05-02T12:11:08;101765.00;;;22.51;23.52
16613;BME280;8419;52.358;9.752;2023-05-02T12:13:57;101769.00;;;22.85;23.14
16613;BME280;8419;52.358;9.752;2023-05-02T12:16:43;101757.00;;;23.41;22.69
16613;BME280;8419;52.358;9.752;2023-05-02T12:19:28;101767.00;;;23.94;22.25
16613;BME280;8419;52.358;9.752;2023-05-02T12:22:14;101768.00;;;24.12;22.07
16613;BME280;8419;52.358;9.752;2023-05-02T12:25:00;101779.00;;;24.06;22.14
16613;BME280;8419;52.358;9.752;2023-05-02T12:27:59;101773.00;;;23.66;22.23
16613;BME280;8419;52.358;9.752;2023-05-02T12:30:47;101775.00;;;23.48;22.20
16613;BME280;8419;52.358;9.752;2023-05-02T12:33:42;101780.00;;;24.16;21.83
16613;BME280;8419;52.358;9.752;2023-05-02T12:36:27;101779.00;;;24.98;21.18
16613;BME280;8419;52.358;9.752;2023-05-02T12:39:14;101778.00;;;26.34;20.27
16613;BME280;8419;52.358;9.752;2023-05-02T12:42:00;101773.00;;;27.76;19.07
16613;BME280;8419;52.358;9.752;2023-05-02T12:44:52;101776.00;;;28.41;18.71
16613;BME280;8419;52.358;9.752;2023-05-02T12:47:44;101782.00;;;28.98;18.24
16613;BME280;8419;52.358;9.752;2023-05-02T12:50:37;101787.00;;;28.62;18.43
16613;BME280;8419;52.358;9.752;2023-05-02T12:56:54;101797.00;;;28.70;17.81
16613;BME280;8419;52.358;9.752;2023-05-02T12:59:40;101807.00;;;28.19;18.12
16613;BME280;8419;52.358;9.752;2023-05-02T13:02:25;101816.00;;;27.30;18.71
16613;BME280;8419;52.358;9.752;2023-05-02T13:05:14;101796.00;;;26.54;19.60
16613;BME280;8419;52.358;9.752;2023-05-02T13:08:00;101812.00;;;26.41;19.83
16613;BME280;8419;52.358;9.752;2023-05-02T13:10:48;101816.00;;;26.13;19.82
16613;BME280;8419;52.358;9.752;2023-05-02T13:13:35;101823.00;;;25.93;19.60
16613;BME280;8419;52.358;9.752;2023-05-02T13:16:21;101828.00;;;25.32;19.55
16613;BME280;8419;52.358;9.752;2023-05-02T13:19:07;101827.00;;;24.58;20.10
16613;BME280;8419;52.358;9.752;2023-05-02T13:21:53;101834.00;;;24.32;20.15
16613;BME280;8419;52.358;9.752;2023-05-02T13:24:39;101831.00;;;24.79;19.69
16613;BME280;8419;52.358;9.752;2023-05-02T13:27:25;101827.00;;;25.44;19.13
16613;BME280;8419;52.358;9.752;2023-05-02T13:30:11;101824.00;;;26.26;18.54
16613;BME280;8419;52.358;9.752;2023-05-02T13:32:57;101835.00;;;26.76;18.13
16613;BME280;8419;52.358;9.752;2023-05-02T13:35:43;101828.00;;;26.78;18.11
16613;BME280;8419;52.358;9.752;2023-05-02T13:38:28;101840.00;;;27.05;17.97
16613;BME280;8419;52.358;9.752;2023-05-02T13:41:14;101823.00;;;27.37;17.83
16613;BME280;8419;52.358;9.752;2023-05-02T13:43:59;101829.00;;;26.77;18.27
16613;BME280;8419;52.358;9.752;2023-05-02T13:46:45;101837.00;;;25.91;18.97
16613;BME280;8419;52.358;9.752;2023-05-02T13:49:33;101838.00;;;25.42;19.38
16613;BME280;8419;52.358;9.752;2023-05-02T13:52:18;101841.00;;;25.01;19.79
16613;BME280;8419;52.358;9.752;2023-05-02T13:55:07;101841.00;;;24.69;20.03
16613;BME280;8419;52.358;9.752;2023-05-02T13:57:52;101847.00;;;24.54;20.17
16613;BME280;8419;52.358;9.752;2023-05-02T14:00:38;101846.00;;;24.49;20.24
16613;BME280;8419;52.358;9.752;2023-05-02T14:03:24;101838.00;;;24.32;20.36
16613;BME280;8419;52.358;9.752;2023-05-02T14:06:09;101849.00;;;24.29;20.37
16613;BME280;8419;52.358;9.752;2023-05-02T14:08:55;101850.00;;;23.99;20.39
16613;BME280;8419;52.358;9.752;2023-05-02T14:11:41;101859.00;;;24.15;20.37
16613;BME280;8419;52.358;9.752;2023-05-02T14:14:28;101850.00;;;24.87;19.75
16613;BME280;8419;52.358;9.752;2023-05-02T14:17:14;101855.00;;;24.74;19.92
16613;BME280;8419;52.358;9.752;2023-05-02T14:19:59;101861.00;;;24.47;20.11
16613;BME280;8419;52.358;9.752;2023-05-02T14:22:44;101867.00;;;24.52;20.14
16613;BME280;8419;52.358;9.752;2023-05-02T14:25:30;101864.00;;;24.38;20.30
16613;BME280;8419;52.358;9.752;2023-05-02T14:28:15;101873.00;;;24.01;20.37
16613;BME280;8419;52.358;9.752;2023-05-02T14:31:00;101868.00;;;23.84;20.44
16613;BME280;8419;52.358;9.752;2023-05-02T14:33:46;101863.00;;;23.76;20.46
16613;BME280;8419;52.358;9.752;2023-05-02T14:36:32;101869.00;;;23.76;20.30
16613;BME280;8419;52.358;9.752;2023-05-02T14:39:17;101867.00;;;23.34;20.67
16613;BME280;8419;52.358;9.752;2023-05-02T14:42:03;101871.00;;;23.08;20.95
16613;BME280;8419;52.358;9.752;2023-05-02T14:44:48;101876.00;;;22.85;21.24
16613;BME280;8419;52.358;9.752;2023-05-02T14:47:34;101880.00;;;22.65;21.45
16613;BME280;8419;52.358;9.752;2023-05-02T14:50:20;101872.00;;;22.35;21.72